createdAt,value
2023-04-30T00:02:30.077Z,99815.87
2023-04-30T00:05:16.613Z,99814.89
2023-04-30T00:08:03.622Z,99814.59
2023-04-30T00:10:51.096Z,99817.05
2023-04-30T00:13:37.303Z,99815.30
2023-04-30T00:16:23.915Z,99818.85
2023-04-30T00:19:10.788Z,99822.58
2023-04-30T00:21:57.148Z,99824.95
2023-04-30T00:24:43.867Z,99828.65
2023-04-30T00:27:31.424Z,99831.33
2023-04-30T00:30:18.035Z,99830.52
2023-04-30T00:33:05.159Z,99833.17
2023-04-30T00:35:52.039Z,99836.64
2023-04-30T00:38:39.464Z,99843.32
2023-04-30T00:41:26.838Z,99849.31
2023-04-30T00:44:13.306Z,99854.60
2023-04-30T00:47:00.213Z,99855.80
2023-04-30T00:49:47.052Z,99856.55
2023-04-30T00:52:33.498Z,99853.34
2023-04-30T00:55:19.965Z,99856.95
2023-04-30T00:58:07.604Z,99856.02
2023-04-30T01:00:55.147Z,99857.04
2023-04-30T01:03:42.093Z,99859.30
2023-04-30T01:06:33.515Z,99858.48
2023-04-30T01:09:20.294Z,99863.01
2023-04-30T01:12:41.852Z,99863.95
2023-04-30T01:15:51.614Z,99866.05
2023-04-30T01:18:47.948Z,99862.68
2023-04-30T01:21:41.040Z,99861.17
2023-04-30T01:24:57.776Z,99863.31
2023-04-30T01:28:01.255Z,99866.68
2023-04-30T01:30:49.563Z,99872.64
2023-04-30T01:33:37.938Z,99879.04
2023-04-30T01:37:23.279Z,99877.54
2023-04-30T01:40:27.594Z,99878.60
2023-04-30T01:44:00.964Z,99882.51
2023-04-30T01:47:07.197Z,99890.80
2023-04-30T01:50:17.837Z,99892.95
2023-04-30T01:53:13.392Z,99895.08
2023-04-30T01:56:05.465Z,99898.58
2023-04-30T01:58:53.418Z,99901.30
2023-04-30T02:01:41.471Z,99899.75
2023-04-30T02:04:27.742Z,99903.73
2023-04-30T02:07:37.573Z,99902.31
2023-04-30T02:10:26.220Z,99906.20
2023-04-30T02:13:12.732Z,99909.75
2023-04-30T02:15:59.422Z,99913.64
2023-04-30T02:18:49.060Z,99912.30
2023-04-30T02:21:39.779Z,99914.29
2023-04-30T02:24:32.064Z,99916.35
2023-04-30T02:27:21.507Z,99923.07
2023-04-30T02:30:09.176Z,99924.42
2023-04-30T02:32:56.575Z,99919.95
2023-04-30T02:35:43.471Z,99926.27
2023-04-30T02:38:31.940Z,99926.59
2023-04-30T02:41:18.344Z,99929.55
2023-04-30T02:44:04.917Z,99931.94
2023-04-30T02:46:51.606Z,99936.73
2023-04-30T02:49:39.505Z,99936.05
2023-04-30T02:52:26.285Z,99938.87
2023-04-30T02:55:12.853Z,99946.25
2023-04-30T02:57:59.225Z,99949.97
2023-04-30T03:00:46.024Z,99946.16
2023-04-30T03:03:33.253Z,99949.75
2023-04-30T03:06:19.998Z,99957.04
2023-04-30T03:09:06.840Z,99956.66
2023-04-30T03:11:53.392Z,99956.23
2023-04-30T03:14:40.649Z,99956.27
2023-04-30T03:17:28.613Z,99956.79
2023-04-30T03:20:15.383Z,99961.49
2023-04-30T03:23:02.464Z,99961.77
2023-04-30T03:25:49.001Z,99963.11
2023-04-30T03:28:35.666Z,99967.08
2023-04-30T03:31:23.076Z,99971.98
2023-04-30T03:34:09.883Z,99973.69
2023-04-30T03:36:57.032Z,99972.62
2023-04-30T03:39:44.077Z,99973.44
2023-04-30T03:42:30.268Z,99977.90
2023-04-30T03:45:16.831Z,99977.80
2023-04-30T03:48:03.874Z,99976.02
2023-04-30T03:50:50.850Z,99985.86
2023-04-30T03:53:37.535Z,99989.33
2023-04-30T03:56:26.341Z,99992.05
2023-04-30T03:59:13.668Z,99993.31
2023-04-30T04:02:01.855Z,99993.52
2023-04-30T04:04:48.703Z,99998.61
2023-04-30T04:07:34.992Z,100000.46
2023-04-30T04:10:21.663Z,100003.73
2023-04-30T04:13:10.959Z,100011.32
2023-04-30T04:16:00.160Z,100016.44
2023-04-30T04:18:47.384Z,100019.66
2023-04-30T04:21:34.080Z,100022.45
2023-04-30T04:24:25.229Z,100020.92
2023-04-30T04:27:11.751Z,100022.60
2023-04-30T04:29:58.440Z,100019.79
2023-04-30T04:32:51.146Z,100022.58
2023-04-30T04:35:37.630Z,100025.82
2023-04-30T04:38:24.086Z,100020.35
2023-04-30T04:41:10.605Z,100017.86
2023-04-30T04:44:02.193Z,100027.18
2023-04-30T04:46:53.396Z,100029.73
2023-04-30T04:49:43.133Z,100034.17
2023-04-30T04:52:30.010Z,100041.02
2023-04-30T04:55:17.292Z,100038.89
2023-04-30T04:58:04.474Z,100035.34
2023-04-30T05:00:51.263Z,100041.71
2023-04-30T05:03:38.887Z,100044.73
2023-04-30T05:06:26.520Z,100044.30
2023-04-30T05:09:14.021Z,100045.75
2023-04-30T05:12:01.748Z,100043.41
2023-04-30T05:14:50.775Z,100043.85
2023-04-30T05:17:37.764Z,100047.73
2023-04-30T05:20:26.181Z,100047.63
2023-04-30T05:23:12.534Z,100055.42
2023-04-30T05:25:59.542Z,100051.09
2023-04-30T05:31:55.088Z,100049.02
2023-04-30T05:34:43.072Z,100049.23
2023-04-30T05:37:31.107Z,100046.74
2023-04-30T05:40:20.022Z,100044.63
2023-04-30T05:43:08.869Z,100049.47
2023-04-30T05:45:57.068Z,100049.66
2023-04-30T05:48:45.218Z,100055.61
2023-04-30T05:51:34.317Z,100053.98
2023-04-30T05:54:22.200Z,100052.30
2023-04-30T05:57:09.833Z,100059.05
2023-04-30T05:59:57.945Z,100066.04
2023-04-30T06:02:47.464Z,100067.60
2023-04-30T06:05:35.672Z,100067.58
2023-04-30T06:08:23.574Z,100068.48
2023-04-30T06:11:13.248Z,100071.32
2023-04-30T06:14:00.957Z,100078.29
2023-04-30T06:16:50.236Z,100078.42
2023-04-30T06:19:39.920Z,100084.73
2023-04-30T06:22:29.501Z,100084.95
2023-04-30T06:25:17.452Z,100089.47
2023-04-30T06:28:10.207Z,100089.52
2023-04-30T06:31:00.084Z,100093.29
2023-04-30T06:33:51.647Z,100092.80
2023-04-30T06:36:40.749Z,100100.00
2023-04-30T06:39:32.412Z,100098.85
2023-04-30T06:42:22.662Z,100103.11
2023-04-30T06:45:15.573Z,100102.84
2023-04-30T06:48:03.851Z,100092.92
2023-04-30T06:50:53.849Z,100096.98
2023-04-30T06:53:42.169Z,100100.88
2023-04-30T06:56:32.390Z,100105.19
2023-04-30T06:59:21.116Z,100105.77
2023-04-30T07:02:09.817Z,100105.47
2023-04-30T07:04:58.356Z,100106.08
2023-04-30T07:07:47.267Z,100107.73
2023-04-30T07:10:34.999Z,100101.63
2023-04-30T07:13:25.329Z,100108.33
2023-04-30T07:16:13.329Z,100107.29
2023-04-30T07:19:01.919Z,100101.70
2023-04-30T07:22:04.661Z,100106.39
2023-04-30T07:24:59.430Z,100111.45
2023-04-30T07:27:53.806Z,100113.51
2023-04-30T07:31:01.691Z,100115.67
2023-04-30T07:33:55.754Z,100120.47
2023-04-30T07:36:45.823Z,100117.50
2023-04-30T07:39:37.782Z,100112.33
2023-04-30T07:42:26.995Z,100121.87
2023-04-30T07:45:18.708Z,100127.02
2023-04-30T07:48:07.414Z,100133.91
2023-04-30T07:50:57.161Z,100135.89
2023-04-30T07:53:46.180Z,100117.78
2023-04-30T07:56:35.394Z,100133.80
2023-04-30T07:59:25.004Z,100138.85
2023-04-30T08:02:14.951Z,100141.70
2023-04-30T08:05:04.875Z,100144.14
2023-04-30T08:07:53.236Z,100146.70
2023-04-30T08:10:42.465Z,100150.67
2023-04-30T08:13:31.139Z,100146.13
2023-04-30T08:16:19.644Z,100151.08
2023-04-30T08:19:07.557Z,100153.19
2023-04-30T08:21:56.167Z,100165.73
2023-04-30T08:24:44.014Z,100157.96
2023-04-30T08:27:32.636Z,100164.98
2023-04-30T08:30:20.646Z,100178.20
2023-04-30T08:33:10.054Z,100178.05
2023-04-30T08:36:00.434Z,100174.58
2023-04-30T08:38:48.099Z,100176.38
2023-04-30T08:41:40.388Z,100182.66
2023-04-30T08:44:30.118Z,100190.83
2023-04-30T08:47:19.804Z,100187.67
2023-04-30T08:50:08.735Z,100186.09
2023-04-30T08:53:00.926Z,100185.32
2023-04-30T08:55:49.334Z,100187.95
2023-04-30T08:58:38.193Z,100195.47
2023-04-30T09:01:28.122Z,100195.36
2023-04-30T09:04:17.404Z,100192.90
2023-04-30T09:07:09.487Z,100203.99
2023-04-30T09:10:00.916Z,100203.20
2023-04-30T09:13:05.345Z,100207.47
2023-04-30T09:15:53.526Z,100204.25
2023-04-30T09:18:42.110Z,100209.85
2023-04-30T09:21:38.046Z,100220.31
2023-04-30T09:24:25.948Z,100217.34
2023-04-30T09:27:22.836Z,100216.63
2023-04-30T09:30:31.929Z,100208.86
2023-04-30T09:33:20.662Z,100212.23
2023-04-30T09:36:11.284Z,100218.77
2023-04-30T09:39:15.620Z,100225.24
2023-04-30T09:42:11.342Z,100229.91
2023-04-30T09:44:59.166Z,100228.73
2023-04-30T09:47:49.810Z,100235.70
2023-04-30T09:50:41.901Z,100241.15
2023-04-30T09:53:38.067Z,100236.38
2023-04-30T09:56:26.895Z,100243.71
2023-04-30T09:59:16.663Z,100240.45
2023-04-30T10:02:08.323Z,100238.91
2023-04-30T10:04:59.510Z,100243.19
2023-04-30T10:07:47.181Z,100248.88
2023-04-30T10:10:38.056Z,100250.02
2023-04-30T10:13:31.517Z,100240.23
2023-04-30T10:16:35.828Z,100235.98
2023-04-30T10:19:35.178Z,100234.91
2023-04-30T10:22:24.218Z,100227.11
2023-04-30T10:25:13.620Z,100233.23
2023-04-30T10:28:04.709Z,100229.64
2023-04-30T10:30:54.555Z,100236.20
2023-04-30T10:33:59.112Z,100243.59
2023-04-30T10:37:08.175Z,100246.19
2023-04-30T10:39:57.035Z,100245.80
2023-04-30T10:42:50.318Z,100243.55
2023-04-30T10:45:43.762Z,100243.40
2023-04-30T10:48:36.039Z,100231.41
2023-04-30T10:51:24.273Z,100241.17
2023-04-30T10:54:17.651Z,100245.75
2023-04-30T10:57:20.360Z,100244.39
2023-04-30T11:00:08.480Z,100238.71
2023-04-30T11:03:04.460Z,100240.12
2023-04-30T11:05:52.689Z,100250.88
2023-04-30T11:08:46.012Z,100242.95
2023-04-30T11:11:34.551Z,100243.95
2023-04-30T11:14:23.215Z,100251.71
2023-04-30T11:17:14.103Z,100250.86
2023-04-30T11:20:02.109Z,100252.92
2023-04-30T11:23:19.656Z,100249.86
2023-04-30T11:26:13.467Z,100239.54
2023-04-30T11:29:29.997Z,100244.33
2023-04-30T11:32:33.239Z,100245.92
2023-04-30T11:35:24.024Z,100254.08
2023-04-30T11:38:17.206Z,100253.66
2023-04-30T11:41:05.607Z,100255.88
2023-04-30T11:43:56.081Z,100258.86
2023-04-30T11:46:44.001Z,100254.52
2023-04-30T11:49:33.420Z,100263.52
2023-04-30T11:52:22.144Z,100264.92
2023-04-30T11:55:22.784Z,100265.76
2023-04-30T11:58:10.847Z,100260.86
2023-04-30T12:01:01.639Z,100263.91
2023-04-30T12:03:53.529Z,100274.39
2023-04-30T12:06:42.768Z,100268.75
2023-04-30T12:09:30.906Z,100269.95
2023-04-30T12:12:28.812Z,100276.16
2023-04-30T12:15:27.361Z,100286.10
2023-04-30T12:18:16.017Z,100284.77
2023-04-30T12:21:04.886Z,100284.61
2023-04-30T12:23:54.051Z,100280.23
2023-04-30T12:26:42.781Z,100285.73
2023-04-30T12:29:30.692Z,100285.05
2023-04-30T12:32:19.472Z,100289.91
2023-04-30T12:35:14.058Z,100281.43
2023-04-30T12:38:06.185Z,100288.95
2023-04-30T12:40:53.990Z,100290.98
2023-04-30T12:43:42.650Z,100295.10
2023-04-30T12:46:30.965Z,100289.27
2023-04-30T12:49:31.047Z,100284.95
2023-04-30T12:52:24.902Z,100286.65
2023-04-30T12:55:21.220Z,100288.77
2023-04-30T12:58:13.279Z,100292.45
2023-04-30T13:01:01.954Z,100291.17
2023-04-30T13:03:51.375Z,100295.98
2023-04-30T13:06:39.940Z,100296.77
2023-04-30T13:09:28.101Z,100295.71
2023-04-30T13:12:20.339Z,100305.21
2023-04-30T13:15:08.569Z,100307.11
2023-04-30T13:17:56.535Z,100307.79
2023-04-30T13:20:48.571Z,100302.21
2023-04-30T13:23:48.696Z,100308.40
2023-04-30T13:26:40.770Z,100297.65
2023-04-30T13:29:29.163Z,100307.19
2023-04-30T13:32:17.433Z,100306.98
2023-04-30T13:35:06.081Z,100307.72
2023-04-30T13:37:54.741Z,100309.93
2023-04-30T13:40:43.505Z,100310.56
2023-04-30T13:43:33.851Z,100304.89
2023-04-30T13:46:24.543Z,100309.52
2023-04-30T13:49:20.273Z,100308.91
2023-04-30T13:52:08.254Z,100311.37
2023-04-30T13:54:57.972Z,100315.59
2023-04-30T13:57:45.912Z,100315.73
2023-04-30T14:00:34.101Z,100312.27
2023-04-30T14:03:22.379Z,100315.02
2023-04-30T14:06:10.730Z,100317.63
2023-04-30T14:08:58.804Z,100315.27
2023-04-30T14:11:46.723Z,100315.21
2023-04-30T14:14:34.538Z,100319.06
2023-04-30T14:17:23.171Z,100315.05
2023-04-30T14:20:13.732Z,100313.29
2023-04-30T14:23:03.766Z,100316.35
2023-04-30T14:25:51.469Z,100317.03
2023-04-30T14:28:39.871Z,100319.51
2023-04-30T14:31:27.902Z,100314.89
2023-04-30T14:34:15.944Z,100315.72
2023-04-30T14:37:04.138Z,100317.98
2023-04-30T14:39:52.864Z,100312.38
2023-04-30T14:42:40.996Z,100310.86
2023-04-30T14:45:29.462Z,100312.66
2023-04-30T14:48:18.712Z,100312.60
2023-04-30T14:51:06.934Z,100321.64
2023-04-30T14:53:54.931Z,100328.47
2023-04-30T14:56:44.506Z,100328.94
2023-04-30T14:59:33.760Z,100328.79
2023-04-30T15:02:24.166Z,100328.35
2023-04-30T15:05:12.847Z,100328.38
2023-04-30T15:08:01.330Z,100326.14
2023-04-30T15:10:49.390Z,100324.38
2023-04-30T15:13:38.185Z,100328.35
2023-04-30T15:16:26.619Z,100326.52
2023-04-30T15:19:14.721Z,100326.90
2023-04-30T15:22:03.106Z,100332.29
2023-04-30T15:24:51.122Z,100326.58
2023-04-30T15:27:39.939Z,100334.19
2023-04-30T15:30:28.090Z,100332.50
2023-04-30T15:33:16.427Z,100337.36
2023-04-30T15:36:05.592Z,100341.33
2023-04-30T15:38:53.407Z,100345.41
2023-04-30T15:41:41.379Z,100346.96
2023-04-30T15:44:29.873Z,100347.02
2023-04-30T15:47:19.042Z,100344.50
2023-04-30T15:50:08.526Z,100344.77
2023-04-30T15:52:56.541Z,100340.64
2023-04-30T15:55:46.810Z,100336.26
2023-04-30T15:58:34.545Z,100335.09
2023-04-30T16:01:23.633Z,100324.28
2023-04-30T16:04:12.871Z,100332.61
2023-04-30T16:07:04.842Z,100335.61
2023-04-30T16:09:54.481Z,100337.48
2023-04-30T16:12:42.859Z,100334.42
2023-04-30T16:15:31.187Z,100334.13
2023-04-30T16:18:19.180Z,100332.89
2023-04-30T16:21:10.327Z,100330.52
2023-04-30T16:23:58.514Z,100331.98
2023-04-30T16:26:46.236Z,100332.79
2023-04-30T16:29:34.562Z,100340.17
2023-04-30T16:32:22.548Z,100334.34
2023-04-30T16:35:10.856Z,100333.73
2023-04-30T16:37:58.816Z,100334.33
2023-04-30T16:40:46.869Z,100337.73
2023-04-30T16:43:36.167Z,100340.86
2023-04-30T16:46:24.292Z,100347.77
2023-04-30T16:49:12.832Z,100347.98
2023-04-30T16:52:02.575Z,100352.64
2023-04-30T16:54:51.094Z,100354.48
2023-04-30T16:57:43.205Z,100358.08
2023-04-30T17:00:37.507Z,100360.95
2023-04-30T17:03:26.860Z,100365.36
2023-04-30T17:06:15.008Z,100364.10
2023-04-30T17:09:04.536Z,100367.04
2023-04-30T17:11:53.535Z,100365.06
2023-04-30T17:14:43.274Z,100372.38
2023-04-30T17:17:31.759Z,100374.34
2023-04-30T17:20:21.356Z,100374.13
2023-04-30T17:23:10.679Z,100376.91
2023-04-30T17:26:00.463Z,100385.58
2023-04-30T17:28:49.903Z,100384.09
2023-04-30T17:31:37.890Z,100387.02
2023-04-30T17:34:27.399Z,100386.05
2023-04-30T17:37:16.261Z,100369.80
2023-04-30T17:40:05.588Z,100389.02
2023-04-30T17:42:54.108Z,100380.84
2023-04-30T17:45:42.021Z,100384.77
2023-04-30T17:48:31.270Z,100386.59
2023-04-30T17:51:19.311Z,100390.36
2023-04-30T17:54:07.963Z,100389.72
2023-04-30T17:56:56.258Z,100391.30
2023-04-30T17:59:44.338Z,100394.73
2023-04-30T18:02:33.013Z,100400.92
2023-04-30T18:05:22.252Z,100407.17
2023-04-30T18:08:11.539Z,100406.61
2023-04-30T18:10:59.507Z,100405.16
2023-04-30T18:13:48.686Z,100403.41
2023-04-30T18:16:37.312Z,100408.48
2023-04-30T18:19:27.180Z,100409.67
2023-04-30T18:22:19.283Z,100408.34
2023-04-30T18:25:11.699Z,100406.86
2023-04-30T18:27:59.852Z,100405.04
2023-04-30T18:30:52.306Z,100401.33
2023-04-30T18:33:40.523Z,100406.70
2023-04-30T18:36:30.587Z,100410.27
2023-04-30T18:39:20.231Z,100411.37
2023-04-30T18:42:10.374Z,100416.49
2023-04-30T18:44:58.807Z,100413.91
2023-04-30T18:47:46.637Z,100416.36
2023-04-30T18:50:35.064Z,100414.58
2023-04-30T18:53:25.388Z,100421.75
2023-04-30T18:56:15.966Z,100423.33
2023-04-30T18:59:06.171Z,100423.52
2023-04-30T19:01:54.963Z,100426.20
2023-04-30T19:04:43.075Z,100429.45
2023-04-30T19:07:31.799Z,100431.96
2023-04-30T19:10:22.783Z,100432.22
2023-04-30T19:13:19.953Z,100426.52
2023-04-30T19:16:09.002Z,100433.61
2023-04-30T19:18:58.188Z,100435.39
2023-04-30T19:21:46.020Z,100435.58
2023-04-30T19:24:34.596Z,100433.48
2023-04-30T19:27:24.045Z,100434.69
2023-04-30T19:30:31.236Z,100434.17
2023-04-30T19:33:23.556Z,100434.10
2023-04-30T19:36:17.563Z,100436.31
2023-04-30T19:39:10.334Z,100432.58
2023-04-30T19:41:59.237Z,100436.91
2023-04-30T19:44:47.498Z,100435.80
2023-04-30T19:47:36.743Z,100439.45
2023-04-30T19:50:25.593Z,100435.19
2023-04-30T19:53:15.080Z,100439.55
2023-04-30T19:56:03.176Z,100435.52
2023-04-30T19:58:51.494Z,100437.77
2023-04-30T20:01:40.293Z,100435.15
2023-04-30T20:04:30.892Z,100437.39
2023-04-30T20:07:20.600Z,100436.14
2023-04-30T20:10:10.041Z,100439.27
2023-04-30T20:13:02.184Z,100442.96
2023-04-30T20:15:50.718Z,100438.03
2023-04-30T20:18:43.447Z,100435.22
2023-04-30T20:21:38.279Z,100433.63
2023-04-30T20:24:29.734Z,100436.73
2023-04-30T20:27:22.984Z,100437.23
2023-04-30T20:30:15.255Z,100437.58
2023-04-30T20:33:04.706Z,100435.73
2023-04-30T20:35:55.745Z,100437.20
2023-04-30T20:38:45.319Z,100434.16
2023-04-30T20:41:39.628Z,100434.39
2023-04-30T20:44:29.404Z,100436.18
2023-04-30T20:47:20.124Z,100434.22
